Time;durP1;ratioP1;P1;durP2;ratioP2;P2;SDS_P1;SDS_P2;PMS_P1;PMS_P2;Temp;Humidity;BMP_temperature;BMP_pressure;BME280_temperature;BME280_humidity;BME280_pressure;Samples;Min_cycle;Max_cycle;Signal;HPM_P1;HPM_P2
2022/12/25 00:01:15;;;;;;;4.17;3.73;;;11.90;45.60;;;;;;10460561;28;20274;-68
2022/12/25 00:06:19;;;;;;;7.27;4.07;;;11.90;45.60;;;;;;10457652;28;20696;-68
2022/12/25 00:11:23;;;;;;;6.03;4.03;;;11.90;45.60;;;;;;10456591;28;20236;-68
2022/12/25 00:16:27;;;;;;;4.27;3.57;;;11.90;45.50;;;;;;10462283;28;20224;-68
2022/12/25 00:21:31;;;;;;;4.20;3.80;;;11.90;45.60;;;;;;10458517;28;20224;-68
2022/12/25 00:26:36;;;;;;;5.13;3.57;;;11.90;45.60;;;;;;10456986;28;20599;-68
2022/12/25 00:31:39;;;;;;;4.87;3.60;;;12.00;45.50;;;;;;10459069;28;20224;-68
2022/12/25 00:36:42;;;;;;;4.03;3.53;;;11.90;45.40;;;;;;10453939;28;20592;-68
2022/12/25 00:47:07;;;;;;;6.80;4.13;;;11.90;45.20;;;;;;10458386;28;20576;-68
2022/12/25 00:52:11;;;;;;;7.73;4.70;;;11.80;45.10;;;;;;10458437;28;20224;-68
2022/12/25 00:57:16;;;;;;;6.73;4.40;;;11.80;45.30;;;;;;10456909;28;20599;-68
2022/12/25 01:02:25;;;;;;;5.50;3.63;;;11.70;45.30;;;;;;10455421;28;20737;-68
2022/12/25 01:07:28;;;;;;;5.10;3.40;;;11.60;45.40;;;;;;10457054;28;20306;-68
2022/12/25 01:12:36;;;;;;;4.30;3.60;;;11.60;45.50;;;;;;10458699;28;20568;-68
2022/12/25 01:17:39;;;;;;;3.80;3.00;;;11.60;45.30;;;;;;10461406;28;20225;-68
2022/12/25 01:22:43;;;;;;;3.50;3.20;;;11.60;45.30;;;;;;10452891;28;20227;-68
2022/12/25 01:27:47;;;;;;;3.53;3.20;;;11.60;45.40;;;;;;10463107;28;20918;-68
2022/12/25 01:32:50;;;;;;;3.47;3.10;;;11.60;45.30;;;;;;10463792;28;20252;-68
2022/12/25 01:37:54;;;;;;;3.87;3.03;;;11.60;45.30;;;;;;10462989;28;20616;-68
2022/12/25 01:42:58;;;;;;;3.53;3.00;;;11.60;45.30;;;;;;10464505;28;20315;-68
2022/12/25 01:48:06;;;;;;;3.40;3.10;;;11.50;45.10;;;;;;10462063;28;20228;-68
2022/12/25 01:53:09;;;;;;;3.70;3.10;;;11.50;45.00;;;;;;10466312;28;20221;-68
2022/12/25 01:58:14;;;;;;;3.50;3.00;;;11.50;45.10;;;;;;10458352;28;20279;-68
2022/12/25 02:03:17;;;;;;;4.43;2.77;;;11.50;45.10;;;;;;10463672;28;20224;-68
2022/12/25 02:08:21;;;;;;;3.00;2.70;;;11.40;45.10;;;;;;10464099;28;20271;-68
2022/12/25 02:13:26;;;;;;;5.07;4.50;;;11.30;45.00;;;;;;10461485;28;20224;-68
2022/12/25 02:18:37;;;;;;;4.43;3.90;;;11.20;45.20;;;;;;10466024;28;20651;-68
2022/12/25 02:24:09;;;;;;;3.93;3.57;;;11.10;45.70;;;;;;10465338;28;20676;-68
2022/12/25 02:29:21;;;;;;;4.70;3.87;;;11.00;45.80;;;;;;10460825;28;20229;-68
2022/12/25 02:34:34;;;;;;;4.87;4.37;;;10.90;46.10;;;;;;10473237;28;20285;-76
2022/12/25 02:39:57;;;;;;;6.47;4.47;;;10.90;46.40;;;;;;10468155;28;20239;-76
2022/12/25 03:06:44;;;;;;;3.60;3.30;;;11.10;46.00;;;;;;10465041;28;20232;-68
2022/12/25 03:11:54;;;;;;;3.50;3.20;;;11.10;46.00;;;;;;10460049;28;20310;-76
2022/12/25 03:16:59;;;;;;;3.23;2.93;;;11.10;46.00;;;;;;10463024;28;20228;-76
2022/12/25 03:27:26;;;;;;;3.40;3.10;;;11.20;45.90;;;;;;10463231;28;20700;-68
2022/12/25 03:32:42;;;;;;;3.37;3.07;;;11.20;45.80;;;;;;10461612;28;20225;-68
2022/12/25 04:37:00;;;;;;;4.53;2.60;;;11.10;46.00;;;;;;10459811;28;20287;-76
2022/12/25 04:42:04;;;;;;;6.47;4.30;;;11.10;45.90;;;;;;10460109;28;20231;-68
2022/12/25 04:47:07;;;;;;;4.23;3.50;;;11.00;45.80;;;;;;10455166;28;20263;-76
2022/12/25 04:52:15;;;;;;;4.33;3.10;;;11.00;46.00;;;;;;10460290;28;20231;-76
2022/12/25 04:57:18;;;;;;;4.70;3.53;;;11.00;46.20;;;;;;10461429;28;20771;-76
2022/12/25 05:02:21;;;;;;;3.63;3.20;;;11.00;46.20;;;;;;10464196;28;20682;-70
2022/12/25 05:07:26;;;;;;;4.67;3.83;;;11.00;46.10;;;;;;10467471;28;20235;-70
2022/12/25 05:12:29;;;;;;;3.50;3.20;;;11.00;46.20;;;;;;10462023;28;20225;-68
2022/12/25 05:17:32;;;;;;;4.53;3.97;;;11.00;46.00;;;;;;10470746;28;20713;-68
2022/12/25 05:22:36;;;;;;;5.63;4.27;;;11.10;46.20;;;;;;10464882;28;20788;-68
2022/12/25 05:27:40;;;;;;;4.73;3.97;;;11.10;46.20;;;;;;10465529;28;20232;-68
2022/12/25 05:32:43;;;;;;;4.33;3.67;;;11.00;46.10;;;;;;10470683;28;20236;-68
2022/12/25 05:37:47;;;;;;;4.43;3.80;;;11.00;46.00;;;;;;10466768;28;20225;-68
2022/12/25 05:42:50;;;;;;;4.77;3.90;;;11.00;46.30;;;;;;10466043;28;20221;-68
2022/12/25 05:47:53;;;;;;;4.77;4.30;;;10.90;46.30;;;;;;10464148;28;20289;-68
2022/12/25 05:52:58;;;;;;;3.23;3.00;;;10.90;46.20;;;;;;10469858;28;20232;-68
2022/12/25 05:58:11;;;;;;;3.50;3.20;;;10.90;46.30;;;;;;10466069;28;20232;-68
2022/12/25 06:03:14;;;;;;;3.43;3.00;;;10.80;46.50;;;;;;10463643;28;20225;-68
2022/12/25 06:08:19;;;;;;;3.40;3.10;;;10.80;46.60;;;;;;10460944;28;20236;-68
2022/12/25 06:13:22;;;;;;;3.20;2.90;;;10.70;46.80;;;;;;10460407;28;20655;-68
2022/12/25 06:18:25;;;;;;;3.10;2.80;;;10.70;46.50;;;;;;10463687;28;20233;-68
2022/12/25 06:23:30;;;;;;;3.47;2.67;;;10.70;46.80;;;;;;10467231;28;20229;-68
2022/12/25 06:28:33;;;;;;;3.93;2.93;;;10.70;46.90;;;;;;10463440;28;20239;-68
2022/12/25 06:33:37;;;;;;;2.90;2.70;;;10.70;46.80;;;;;;10466449;28;20244;-68
2022/12/25 06:38:42;;;;;;;3.33;3.03;;;10.70;46.90;;;;;;10462258;28;20228;-68
2022/12/25 06:43:48;;;;;;;2.60;2.40;;;10.70;47.00;;;;;;10463397;28;20221;-68
2022/12/25 06:48:51;;;;;;;3.07;2.87;;;10.80;46.90;;;;;;10457288;28;20240;-68
2022/12/25 06:53:57;;;;;;;3.07;2.87;;;10.80;46.60;;;;;;10466642;28;20236;-68
2022/12/25 06:59:03;;;;;;;2.90;2.70;;;10.80;46.60;;;;;;10464331;28;20243;-68
2022/12/25 07:04:11;;;;;;;3.30;3.00;;;10.90;46.70;;;;;;10463399;28;20224;-68
2022/12/25 07:09:16;;;;;;;3.53;2.80;;;10.90;46.50;;;;;;10462439;28;20232;-68
2022/12/25 07:14:20;;;;;;;2.97;2.77;;;10.90;46.30;;;;;;10459203;28;20225;-68
2022/12/25 07:19:26;;;;;;;2.80;2.60;;;10.90;46.20;;;;;;10459688;28;20227;-68
2022/12/25 07:24:31;;;;;;;5.67;3.40;;;10.90;46.20;;;;;;10457720;28;20234;-68
2022/12/25 07:29:34;;;;;;;4.60;3.40;;;10.90;46.20;;;;;;10460291;28;20224;-69
2022/12/25 07:34:37;;;;;;;3.47;3.10;;;10.80;46.10;;;;;;10462398;28;20216;-68
2022/12/25 07:39:42;;;;;;;5.23;4.43;;;10.80;46.10;;;;;;10462817;28;20978;-69
2022/12/25 07:44:45;;;;;;;8.03;7.23;;;10.80;46.00;;;;;;10458642;28;20611;-72
2022/12/25 07:49:48;;;;;;;7.23;6.53;;;10.80;46.10;;;;;;10462473;28;20233;-71
2022/12/25 07:54:52;;;;;;;6.30;5.70;;;10.70;45.90;;;;;;10462879;28;20731;-71
2022/12/25 07:59:56;;;;;;;6.63;5.87;;;10.70;45.90;;;;;;10461385;28;20622;-71
2022/12/25 08:04:59;;;;;;;4.17;3.87;;;10.70;45.90;;;;;;10463141;28;20278;-72
2022/12/25 08:10:05;;;;;;;5.70;5.20;;;10.70;46.00;;;;;;10458352;28;20225;-72
2022/12/25 08:15:08;;;;;;;5.87;5.37;;;10.70;46.10;;;;;;10457690;28;20229;-72
2022/12/25 08:20:12;;;;;;;6.23;5.67;;;10.70;46.20;;;;;;10459196;28;20784;-72
2022/12/25 08:25:17;;;;;;;7.57;6.73;;;10.70;46.50;;;;;;10457483;28;20598;-72
2022/12/25 08:30:20;;;;;;;9.13;8.23;;;10.70;46.50;;;;;;10456814;28;20224;-71
2022/12/25 08:35:24;;;;;;;7.13;6.43;;;10.80;46.70;;;;;;10461996;28;20232;-71
2022/12/25 08:40:29;;;;;;;5.33;4.87;;;10.80;46.90;;;;;;10463880;28;20586;-72
2022/12/25 08:45:32;;;;;;;3.87;3.57;;;10.90;47.40;;;;;;10460174;28;20228;-71
2022/12/25 08:50:37;;;;;;;4.37;3.67;;;10.90;47.40;;;;;;10457496;28;20320;-72
2022/12/25 08:55:42;;;;;;;4.03;3.67;;;10.90;47.60;;;;;;10462115;28;20238;-71
2022/12/25 09:00:45;;;;;;;4.10;3.80;;;11.00;47.90;;;;;;10454387;28;20224;-72
2022/12/25 09:05:48;;;;;;;6.40;5.63;;;11.00;47.80;;;;;;10451641;28;20225;-72
2022/12/25 09:10:52;;;;;;;4.93;4.30;;;11.10;48.00;;;;;;10456864;28;20721;-72
2022/12/25 09:15:56;;;;;;;6.97;6.37;;;11.10;48.20;;;;;;10457573;28;20236;-71
2022/12/25 09:20:59;;;;;;;6.10;5.60;;;11.20;48.10;;;;;;10456374;28;20237;-71
2022/12/25 09:26:06;;;;;;;5.97;5.37;;;11.30;48.20;;;;;;10456807;28;20720;-71
2022/12/25 09:31:09;;;;;;;5.17;4.23;;;11.40;48.50;;;;;;10460593;28;20235;-71
2022/12/25 09:36:12;;;;;;;4.60;4.20;;;11.40;48.20;;;;;;10455466;28;20233;-71
2022/12/25 09:41:22;;;;;;;3.73;3.43;;;11.60;48.30;;;;;;10461689;28;20221;-71
2022/12/25 09:46:27;;;;;;;3.33;3.03;;;11.70;48.70;;;;;;10455026;28;20232;-73
2022/12/25 09:51:40;;;;;;;4.40;3.97;;;11.80;48.40;;;;;;10464874;28;20317;-71
2022/12/25 09:56:45;;;;;;;4.30;3.93;;;11.90;48.70;;;;;;10464438;28;20232;-72
2022/12/25 10:02:02;;;;;;;3.70;3.40;;;12.00;48.90;;;;;;10463156;28;20229;-76
2022/12/25 10:07:13;;;;;;;4.13;3.83;;;12.20;48.70;;;;;;10473049;28;20226;-77
2022/12/25 10:12:37;;;;;;;4.03;3.67;;;12.40;48.30;;;;;;10477286;28;20227;-77
2022/12/25 10:17:56;;;;;;;4.30;3.90;;;12.50;48.30;;;;;;10476945;28;20248;-77
2022/12/25 10:23:01;;;;;;;4.00;3.60;;;12.60;48.20;;;;;;10475717;28;20256;-77
2022/12/25 10:28:14;;;;;;;4.13;3.50;;;12.70;48.20;;;;;;10466909;28;20243;-76
2022/12/25 10:33:17;;;;;;;3.67;3.37;;;12.80;48.30;;;;;;10475263;28;20224;-77
2022/12/25 10:38:20;;;;;;;3.90;3.60;;;12.90;48.40;;;;;;10470971;28;20849;-77
2022/12/25 10:43:30;;;;;;;3.90;3.50;;;13.00;48.50;;;;;;10470066;28;20270;-76
2022/12/25 10:48:33;;;;;;;3.80;3.50;;;13.10;48.40;;;;;;10459890;28;20696;-76
2022/12/25 10:53:40;;;;;;;4.13;3.50;;;13.30;48.70;;;;;;10474016;28;20334;-76
2022/12/25 10:58:45;;;;;;;4.00;3.43;;;13.40;48.20;;;;;;10463211;28;20224;-77
2022/12/25 11:03:52;;;;;;;3.57;3.27;;;13.60;48.10;;;;;;10476646;28;20224;-76
2022/12/25 11:08:57;;;;;;;4.57;4.10;;;13.70;47.90;;;;;;10474701;28;20256;-76
2022/12/25 11:14:03;;;;;;;3.77;3.50;;;13.80;47.90;;;;;;10468739;28;20238;-76
2022/12/25 11:19:24;;;;;;;5.60;5.10;;;14.00;47.70;;;;;;10475942;28;20231;-76
2022/12/25 11:24:29;;;;;;;3.67;3.37;;;14.10;47.30;;;;;;10473443;28;20231;-79
2022/12/25 11:29:39;;;;;;;3.97;3.67;;;14.20;47.60;;;;;;10468034;28;20770;-77
2022/12/25 11:34:45;;;;;;;4.30;3.80;;;14.30;47.10;;;;;;10467414;28;20227;-76
2022/12/25 11:39:48;;;;;;;3.73;3.43;;;14.40;47.30;;;;;;10466728;28;20243;-76
2022/12/25 11:44:57;;;;;;;3.83;3.30;;;14.50;47.40;;;;;;10452277;28;20334;-71
2022/12/25 11:50:05;;;;;;;3.20;2.90;;;14.60;46.70;;;;;;10459434;28;20725;-71
2022/12/25 11:55:17;;;;;;;3.50;3.20;;;14.60;46.50;;;;;;10461584;28;20337;-71
2022/12/25 12:00:22;;;;;;;3.27;2.60;;;14.70;46.30;;;;;;10458408;28;20728;-71
2022/12/25 12:05:33;;;;;;;3.63;3.33;;;14.80;46.60;;;;;;10458447;28;20228;-71
2022/12/25 12:10:51;;;;;;;3.63;3.10;;;14.80;45.70;;;;;;10461222;28;20225;-71
2022/12/25 12:15:56;;;;;;;3.70;3.40;;;14.80;45.90;;;;;;10462574;28;20747;-71
2022/12/25 12:21:02;;;;;;;3.27;2.93;;;14.80;46.50;;;;;;10460917;28;20228;-71
2022/12/25 12:26:05;;;;;;;3.20;2.90;;;14.90;46.40;;;;;;10458697;28;20641;-71
2022/12/25 12:31:10;;;;;;;3.30;2.80;;;15.00;46.60;;;;;;10458697;28;20251;-71
2022/12/25 12:36:14;;;;;;;3.30;3.00;;;15.00;46.80;;;;;;10468201;28;20244;-77
2022/12/25 12:41:18;;;;;;;3.20;2.90;;;15.00;46.20;;;;;;10465209;28;20229;-77
2022/12/25 12:46:24;;;;;;;3.47;3.07;;;15.00;46.20;;;;;;10467586;28;20232;-77
2022/12/25 12:51:35;;;;;;;3.03;2.83;;;15.00;46.60;;;;;;10469749;28;20216;-68
2022/12/25 12:56:38;;;;;;;3.13;2.83;;;15.00;46.10;;;;;;10459207;28;20224;-68
2022/12/25 13:01:51;;;;;;;4.17;3.00;;;15.10;46.30;;;;;;10459165;28;20224;-68
2022/12/25 13:07:04;;;;;;;3.40;3.10;;;15.20;45.70;;;;;;10460639;28;20221;-68
2022/12/25 13:12:08;;;;;;;2.90;2.67;;;15.20;45.50;;;;;;10460570;28;20220;-68
2022/12/25 13:17:19;;;;;;;3.20;3.00;;;15.30;45.80;;;;;;10453934;28;20607;-68
2022/12/25 13:22:25;;;;;;;3.37;3.07;;;15.40;44.70;;;;;;10459634;28;20229;-68
2022/12/25 13:27:30;;;;;;;3.00;2.80;;;15.40;45.40;;;;;;10464111;28;20705;-68
2022/12/25 13:32:35;;;;;;;2.60;2.40;;;15.40;45.40;;;;;;10468236;28;20225;-68
2022/12/25 13:37:39;;;;;;;2.87;2.67;;;15.40;45.40;;;;;;10470270;28;20228;-68
2022/12/25 13:42:48;;;;;;;2.87;2.67;;;15.50;45.40;;;;;;10464904;28;20240;-68
2022/12/25 13:47:53;;;;;;;3.50;2.67;;;15.50;44.80;;;;;;10462876;28;20236;-68
2022/12/25 13:53:10;;;;;;;3.03;2.30;;;15.50;45.30;;;;;;10468107;28;20221;-68
2022/12/25 13:58:24;;;;;;;2.43;2.23;;;15.50;45.30;;;;;;10466281;28;20223;-68
2022/12/25 14:03:34;;;;;;;2.40;2.20;;;15.50;44.80;;;;;;10463289;28;20243;-68
2022/12/25 14:08:37;;;;;;;2.70;2.50;;;15.50;44.80;;;;;;10459586;28;20325;-68
2022/12/25 14:13:44;;;;;;;2.70;2.50;;;15.60;44.90;;;;;;10463035;28;20267;-68
2022/12/25 14:18:53;;;;;;;2.97;2.50;;;15.50;44.80;;;;;;10465651;28;20228;-68
2022/12/25 14:23:56;;;;;;;2.97;2.77;;;15.50;44.80;;;;;;10469933;28;20720;-68
2022/12/25 14:29:07;;;;;;;2.50;2.13;;;15.40;44.70;;;;;;10468058;28;20233;-68
2022/12/25 14:34:23;;;;;;;2.40;2.20;;;15.40;44.70;;;;;;10462000;28;20239;-68
2022/12/25 14:39:31;;;;;;;2.53;2.33;;;15.40;44.70;;;;;;10464318;28;20231;-68
2022/12/25 14:44:37;;;;;;;2.70;2.50;;;15.30;44.60;;;;;;10460857;28;20225;-68
2022/12/25 14:49:42;;;;;;;2.43;2.20;;;15.30;44.60;;;;;;10460253;28;20320;-68
2022/12/25 14:54:48;;;;;;;2.70;2.50;;;15.20;44.50;;;;;;10463727;28;20649;-68
2022/12/25 15:00:05;;;;;;;2.50;2.30;;;15.20;44.50;;;;;;10457354;28;20247;-68
2022/12/25 15:10:37;;;;;;;3.27;3.07;;;15.20;44.50;;;;;;10513034;27;20560;-69
2022/12/25 15:16:06;;;;;;;2.60;2.40;;;15.00;44.30;;;;;;10512903;27;20228;-69
2022/12/25 15:21:14;;;;;;;2.80;2.60;;;15.00;44.30;;;;;;10484820;28;20293;-68
2022/12/25 15:26:18;;;;;;;2.90;2.70;;;14.90;44.30;;;;;;10511747;28;20227;-69
2022/12/25 15:31:24;;;;;;;3.77;3.47;;;14.90;44.30;;;;;;10511960;28;20237;-68
2022/12/25 15:36:28;;;;;;;4.47;3.80;;;14.90;44.30;;;;;;10511076;28;20314;-69
2022/12/25 15:46:56;;;;;;;4.70;3.63;;;14.80;44.20;;;;;;10504724;28;20284;-69
2022/12/25 15:51:59;;;;;;;3.83;3.40;;;14.80;44.20;;;;;;10510435;28;20239;-69
2022/12/25 15:57:06;;;;;;;4.30;3.50;;;14.70;44.80;;;;;;10508206;28;20277;-69
2022/12/25 16:02:14;;;;;;;3.77;3.07;;;14.60;44.00;;;;;;10509459;28;20246;-69
2022/12/25 16:07:23;;;;;;;3.97;3.33;;;14.60;44.00;;;;;;10510890;28;20228;-69
2022/12/25 16:12:28;;;;;;;4.43;4.00;;;14.50;43.90;;;;;;10506597;28;20231;-69
2022/12/25 16:17:31;;;;;;;5.20;3.60;;;14.40;43.80;;;;;;10504961;28;20232;-69
2022/12/25 16:22:38;;;;;;;3.47;3.13;;;14.30;43.70;;;;;;10479440;28;20643;-69
2022/12/25 16:27:43;;;;;;;10.87;9.20;;;14.20;43.60;;;;;;10481022;28;20235;-69
2022/12/25 16:32:49;;;;;;;13.97;11.03;;;14.10;43.60;;;;;;10481122;28;20660;-69
2022/12/25 16:37:52;;;;;;;10.97;9.03;;;14.10;43.60;;;;;;10475690;28;20246;-69
2022/12/25 16:42:57;;;;;;;6.93;6.20;;;14.00;43.60;;;;;;10476576;28;20771;-69
2022/12/25 16:48:00;;;;;;;4.47;4.07;;;13.90;43.40;;;;;;10476434;28;20228;-69
2022/12/25 16:53:03;;;;;;;6.13;3.50;;;13.90;43.90;;;;;;10480117;28;20270;-69
2022/12/25 16:58:08;;;;;;;4.70;3.80;;;13.80;43.90;;;;;;10479581;28;20244;-68
2022/12/25 17:03:11;;;;;;;8.03;4.83;;;13.70;43.50;;;;;;10478920;28;20236;-69
2022/12/25 17:08:14;;;;;;;6.10;4.37;;;13.70;43.50;;;;;;10476601;28;20746;-69
2022/12/25 17:13:18;;;;;;;7.77;6.63;;;13.60;43.40;;;;;;10479756;28;20216;-69
2022/12/25 17:18:22;;;;;;;10.30;9.20;;;13.50;43.30;;;;;;10477460;28;20575;-69
2022/12/25 17:23:25;;;;;;;8.17;7.17;;;13.40;43.70;;;;;;10475956;28;20221;-69
2022/12/25 17:28:29;;;;;;;10.03;8.70;;;13.30;43.90;;;;;;10478435;28;20699;-68
2022/12/25 17:33:34;;;;;;;8.33;6.17;;;13.20;44.10;;;;;;10474117;28;20263;-69
2022/12/25 17:38:38;;;;;;;8.03;6.23;;;13.00;44.30;;;;;;10475815;28;20232;-69
2022/12/25 17:43:44;;;;;;;7.63;5.60;;;13.00;44.50;;;;;;10476249;28;20231;-69
2022/12/25 17:48:49;;;;;;;5.70;5.10;;;13.00;44.40;;;;;;10435767;28;20291;-69
2022/12/25 17:53:54;;;;;;;5.20;4.70;;;12.90;44.40;;;;;;10435859;28;20319;-69
2022/12/25 17:58:59;;;;;;;6.20;5.60;;;12.90;44.40;;;;;;10436216;28;20236;-69
2022/12/25 18:04:03;;;;;;;5.67;5.17;;;12.90;44.40;;;;;;10463396;28;20232;-69
2022/12/25 18:09:08;;;;;;;6.40;5.80;;;12.90;44.40;;;;;;10479746;28;20231;-70
2022/12/25 18:14:15;;;;;;;6.63;4.97;;;12.90;44.30;;;;;;10473824;28;20270;-69
2022/12/25 18:19:18;;;;;;;5.67;5.10;;;12.80;43.80;;;;;;10477388;28;20273;-69
2022/12/25 18:24:24;;;;;;;6.93;6.30;;;12.70;43.80;;;;;;10476173;28;20286;-70
2022/12/25 18:29:28;;;;;;;5.87;5.23;;;12.70;43.80;;;;;;10476333;28;20232;-69
2022/12/25 18:34:32;;;;;;;6.50;5.90;;;12.50;43.70;;;;;;10477457;28;20227;-69
2022/12/25 18:39:35;;;;;;;5.77;5.13;;;12.50;43.90;;;;;;10478664;28;20228;-69
2022/12/25 18:44:39;;;;;;;6.20;5.60;;;12.40;43.90;;;;;;10474971;28;20228;-69
2022/12/25 18:49:42;;;;;;;5.53;5.03;;;12.40;44.00;;;;;;10471555;28;20281;-69
2022/12/25 18:54:45;;;;;;;5.63;5.13;;;12.30;43.90;;;;;;10470901;28;20714;-69
2022/12/25 18:59:50;;;;;;;5.73;5.20;;;12.20;43.60;;;;;;10477086;28;20270;-69
2022/12/25 19:04:53;;;;;;;5.27;4.77;;;12.10;43.50;;;;;;10474179;28;20248;-69
2022/12/25 19:09:56;;;;;;;6.60;6.03;;;12.00;43.60;;;;;;10475823;28;20259;-69
2022/12/25 19:15:01;;;;;;;8.30;6.63;;;11.90;43.40;;;;;;10475526;28;20232;-69
2022/12/25 19:20:05;;;;;;;6.30;5.70;;;11.80;43.30;;;;;;10469039;28;20243;-69
2022/12/25 19:25:09;;;;;;;6.03;5.43;;;11.50;43.70;;;;;;10474459;28;20224;-69
2022/12/25 19:30:14;;;;;;;7.13;5.67;;;11.30;44.10;;;;;;10473768;28;20229;-69
2022/12/25 19:35:17;;;;;;;8.60;7.53;;;11.10;44.60;;;;;;10476613;28;20650;-69
2022/12/25 19:40:21;;;;;;;8.97;7.37;;;11.00;44.80;;;;;;10474748;28;20531;-69
2022/12/25 19:45:25;;;;;;;6.63;5.80;;;10.90;44.90;;;;;;10473052;28;20232;-69
2022/12/25 19:50:32;;;;;;;5.90;5.30;;;10.80;45.40;;;;;;10470988;28;20228;-69
2022/12/25 19:55:35;;;;;;;8.60;6.00;;;10.80;46.00;;;;;;10480489;28;20235;-69
2022/12/25 20:00:40;;;;;;;6.87;6.17;;;10.70;45.80;;;;;;10480859;28;20228;-68
2022/12/25 20:05:45;;;;;;;6.97;6.37;;;10.70;46.40;;;;;;10481370;28;20233;-69
2022/12/25 20:10:48;;;;;;;6.00;5.50;;;10.60;46.40;;;;;;10481992;28;20243;-69
2022/12/25 20:15:52;;;;;;;7.97;5.97;;;10.60;46.40;;;;;;10479275;28;20236;-69
2022/12/25 20:21:00;;;;;;;5.97;5.37;;;10.60;46.60;;;;;;10478740;28;20236;-69
2022/12/25 20:26:04;;;;;;;5.87;5.27;;;10.60;46.80;;;;;;10474739;28;20587;-69
2022/12/25 20:31:12;;;;;;;7.10;4.97;;;10.60;46.40;;;;;;10482608;28;20236;-70
2022/12/25 20:36:17;;;;;;;6.13;5.60;;;10.60;46.40;;;;;;10476734;28;20231;-69
2022/12/25 20:41:21;;;;;;;6.93;5.43;;;10.60;46.40;;;;;;10480313;28;20227;-68
2022/12/25 20:46:31;;;;;;;7.37;6.37;;;10.50;46.30;;;;;;10476176;28;20234;-68
2022/12/25 20:51:34;;;;;;;8.00;6.90;;;10.50;46.80;;;;;;10481080;28;20235;-69
2022/12/25 20:56:39;;;;;;;7.77;7.03;;;10.50;46.80;;;;;;10479771;28;20596;-68
2022/12/25 21:01:43;;;;;;;8.57;7.73;;;10.60;47.00;;;;;;10475457;28;20227;-69
2022/12/25 21:06:46;;;;;;;7.93;7.17;;;10.70;47.00;;;;;;10477882;28;20310;-69
2022/12/25 21:11:49;;;;;;;8.10;7.30;;;10.80;46.60;;;;;;10475559;28;20666;-69
2022/12/25 21:16:54;;;;;;;10.67;9.67;;;10.80;46.60;;;;;;10477788;28;20713;-69
2022/12/25 21:21:57;;;;;;;8.77;7.57;;;10.80;46.90;;;;;;10480985;28;20224;-69
2022/12/25 21:27:00;;;;;;;10.93;9.73;;;10.90;46.70;;;;;;10476090;28;20224;-69
2022/12/25 21:37:25;;;;;;;4.63;3.60;;;11.00;46.70;;;;;;10479815;28;20239;-69
2022/12/25 21:42:29;;;;;;;3.40;3.07;;;11.10;46.90;;;;;;10478277;28;20232;-69
2022/12/25 21:47:33;;;;;;;3.00;2.50;;;11.20;47.40;;;;;;10462803;28;20240;-69
2022/12/25 21:52:56;;;;;;;2.73;2.53;;;11.30;48.00;;;;;;10477925;28;20282;-69
2022/12/25 21:58:00;;;;;;;2.50;2.30;;;11.60;47.80;;;;;;10475541;28;20235;-69
2022/12/25 22:03:04;;;;;;;2.23;2.10;;;11.80;47.60;;;;;;10477108;28;20244;-69
2022/12/25 22:08:07;;;;;;;2.40;2.20;;;12.00;47.70;;;;;;10475944;28;20664;-69
2022/12/25 22:23:53;;;;;;;2.90;2.30;;;12.40;46.70;;;;;;10445495;28;20225;-68
2022/12/25 22:28:56;;;;;;;2.40;2.00;;;12.50;47.30;;;;;;10428251;28;20241;-69
2022/12/25 22:34:01;;;;;;;2.40;2.20;;;12.50;46.40;;;;;;10431873;28;20232;-69
2022/12/25 22:39:04;;;;;;;2.40;2.20;;;12.60;46.20;;;;;;10474158;28;21026;-69
2022/12/25 22:44:07;;;;;;;2.63;2.20;;;12.60;46.30;;;;;;10476767;28;20711;-69
2022/12/25 22:49:21;;;;;;;2.40;2.20;;;12.60;46.20;;;;;;10431765;28;20233;-69
2022/12/25 22:54:25;;;;;;;2.40;2.17;;;12.60;46.00;;;;;;10433360;28;20236;-69
2022/12/25 22:59:28;;;;;;;2.27;2.00;;;12.60;45.90;;;;;;10433856;28;20236;-69
2022/12/25 23:04:33;;;;;;;2.43;2.23;;;12.60;45.80;;;;;;10432057;28;20217;-69
2022/12/25 23:09:36;;;;;;;2.50;2.30;;;12.60;45.60;;;;;;10433708;28;20232;-69
2022/12/25 23:14:39;;;;;;;2.43;2.23;;;12.50;45.50;;;;;;10434052;28;20287;-69
2022/12/25 23:30:34;;;;;;;5.00;2.07;;;12.50;45.30;;;;;;10481416;28;20224;-68
2022/12/25 23:35:38;;;;;;;2.70;2.00;;;12.50;45.90;;;;;;10480091;28;20278;-68
2022/12/25 23:40:41;;;;;;;1.87;1.77;;;12.50;45.70;;;;;;10484496;28;20235;-68
2022/12/25 23:45:45;;;;;;;1.93;1.80;;;12.70;46.10;;;;;;10480266;28;20224;-69
2022/12/25 23:50:49;;;;;;;2.30;2.10;;;12.70;45.80;;;;;;10483057;28;20785;-69
2022/12/25 23:55:52;;;;;;;2.63;2.43;;;12.90;45.20;;;;;;10473350;28;20821;-68
